Time;durP1;ratioP1;P1;durP2;ratioP2;P2;SDS_P1;SDS_P2;PMS_P1;PMS_P2;Temp;Humidity;BMP_temperature;BMP_pressure;BME280_temperature;BME280_humidity;BME280_pressure;Samples;Min_cycle;Max_cycle;Signal;HPM_P1;HPM_P2
2022/06/06 00:01:11;;;;;;;;;;;;;;;;;;5012464;28;20029;-91
2022/06/06 00:03:37;;;;;;;;;;;;;;;;;;5011656;28;19968;-91
2022/06/06 00:06:05;;;;;;;;;;;;;;;;;;4990503;28;20030;-91
2022/06/06 00:08:30;;;;;;;;;;;;;;;;;;4993858;28;19996;-91
2022/06/06 00:10:58;;;;;;;;;;;;;;;;;;5012536;28;19986;-91
2022/06/06 00:13:23;;;;;;;;;;;;;;;;;;4988706;28;19976;-92
2022/06/06 00:15:49;;;;;;;;;;;;;;;;;;5013937;28;19978;-92
2022/06/06 00:18:14;;;;;;;;;;;;;;;;;;5013539;28;19972;-91
2022/06/06 00:20:39;;;;;;;;;;;;;;;;;;5014271;28;20129;-91
2022/06/06 00:23:05;;;;;;;;;;;;;;;;;;4992963;28;19975;-91
2022/06/06 00:25:32;;;;;;;;;;;;;;;;;;5016496;28;20027;-90
2022/06/06 00:27:58;;;;;;;;;;;;;;;;;;5021552;28;20000;-94
2022/06/06 00:30:26;;;;;;;;;;;;;;;;;;5016409;28;19968;-92
2022/06/06 00:35:35;;;;;;;;;;;;;;;;;;5012792;28;20622;-92
2022/06/06 00:38:00;;;;;;;;;;;;;;;;;;5007999;28;19972;-92
2022/06/06 00:40:26;;;;;;;;;;;;;;;;;;5013623;28;19976;-92
2022/06/06 00:42:51;;;;;;;;;;;;;;;;;;5013687;28;19972;-93
2022/06/06 00:45:21;;;;;;;;;;;;;;;;;;5013637;28;19968;-93
2022/06/06 00:47:46;;;;;;;;;;;;;;;;;;5015388;28;20530;-93
2022/06/06 00:50:12;;;;;;;;;;;;;;;;;;5012156;28;19999;-94
2022/06/06 00:52:37;;;;;;;;;;;;;;;;;;5021887;28;19978;-92
2022/06/06 00:55:05;;;;;;;;;;;;;;;;;;5014119;28;20389;-93
2022/06/06 00:57:31;;;;;;;;;;;;;;;;;;5016522;28;20513;-92
2022/06/06 00:59:56;;;;;;;;;;;;;;;;;;5014333;28;20285;-91
2022/06/06 01:02:22;;;;;;;;;;;;;;;;;;5012538;28;20053;-91
2022/06/06 01:04:47;;;;;;;;;;;;;;;;;;5013949;28;20094;-93
2022/06/06 01:07:15;;;;;;;;;;;;;;;;;;5011701;28;20430;-92
2022/06/06 01:09:40;;;;;;;;;;;;;;;;;;5014754;28;19973;-90
2022/06/06 01:12:08;;;;;;;;;;;;;;;;;;5011774;28;19979;-91
2022/06/06 01:14:34;;;;;;;;;;;;;;;;;;5024118;28;19980;-93
2022/06/06 01:16:59;;;;;;;;;;;;;;;;;;5030451;28;20003;-91
2022/06/06 01:19:30;;;;;;;;;;;;;;;;;;5033650;28;20181;-92
2022/06/06 01:21:56;;;;;;;;;;;;;;;;;;5026493;28;19976;-91
2022/06/06 01:24:21;;;;;;;;;;;;;;;;;;5011497;28;19996;-91
2022/06/06 01:26:46;;;;;;;;;;;;;;;;;;5012109;28;20070;-91
2022/06/06 01:29:11;;;;;;;;;;;;;;;;;;5011422;28;19988;-92
2022/06/06 01:31:39;;;;;;;;;;;;;;;;;;5008410;28;19972;-91
2022/06/06 01:34:04;;;;;;;;;;;;;;;;;;5008505;28;20058;-92
2022/06/06 01:36:30;;;;;;;;;;;;;;;;;;5007888;28;20291;-92
2022/06/06 01:38:58;;;;;;;;;;;;;;;;;;4987594;28;20066;-91
2022/06/06 01:41:23;;;;;;;;;;;;;;;;;;5006765;28;20694;-92
2022/06/06 01:43:49;;;;;;;;;;;;;;;;;;5008198;28;19983;-93
2022/06/06 01:46:14;;;;;;;;;;;;;;;;;;5009260;28;19995;-92
2022/06/06 01:48:39;;;;;;;;;;;;;;;;;;4993214;28;20002;-93
2022/06/06 01:51:12;;;;;;;;;;;;;;;;;;5003832;28;19972;-92
2022/06/06 01:53:37;;;;;;;;;;;;;;;;;;5006517;28;19968;-90
2022/06/06 01:56:05;;;;;;;;;;;;;;;;;;4975813;28;20000;-93
2022/06/06 01:58:30;;;;;;;;;;;;;;;;;;4975192;28;20008;-92
2022/06/06 02:01:11;;;;;;;;;;;;;;;;;;5010330;28;20022;-92
2022/06/06 02:03:37;;;;;;;;;;;;;;;;;;5008637;28;19969;-92
2022/06/06 02:06:02;;;;;;;;;;;;;;;;;;5009846;28;19976;-91
2022/06/06 02:08:30;;;;;;;;;;;;;;;;;;5012560;28;19995;-92
2022/06/06 02:10:56;;;;;;;;;;;;;;;;;;5011217;28;20422;-92
2022/06/06 02:13:21;;;;;;;;;;;;;;;;;;4993646;28;20022;-93
2022/06/06 02:15:49;;;;;;;;;;;;;;;;;;5005903;28;19972;-91
2022/06/06 02:18:14;;;;;;;;;;;;;;;;;;5012759;28;19991;-91
2022/06/06 02:20:39;;;;;;;;;;;;;;;;;;5015579;28;19976;-92
2022/06/06 02:23:07;;;;;;;;;;;;;;;;;;4991352;28;19968;-93
2022/06/06 02:25:36;;;;;;;;;;;;;;;;;;5009489;28;20585;-92
2022/06/06 02:28:06;;;;;;;;;;;;;;;;;;5011935;28;22329;-91
2022/06/06 02:30:31;;;;;;;;;;;;;;;;;;5013156;28;20429;-92
2022/06/06 02:32:56;;;;;;;;;;;;;;;;;;5010051;28;20059;-93
2022/06/06 02:35:22;;;;;;;;;;;;;;;;;;5008474;28;20150;-92
2022/06/06 02:37:48;;;;;;;;;;;;;;;;;;5015319;28;19980;-91
2022/06/06 02:40:13;;;;;;;;;;;;;;;;;;5014199;28;20169;-92
2022/06/06 02:42:38;;;;;;;;;;;;;;;;;;5017737;28;20004;-92
2022/06/06 02:45:04;;;;;;;;;;;;;;;;;;5014915;28;19983;-92
2022/06/06 02:47:29;;;;;;;;;;;;;;;;;;5017597;28;20352;-93
2022/06/06 02:49:54;;;;;;;;;;;;;;;;;;5021202;28;19968;-91
2022/06/06 02:52:20;;;;;;;;;;;;;;;;;;5019367;28;20063;-91
2022/06/06 02:54:48;;;;;;;;;;;;;;;;;;5002191;28;20083;-91
2022/06/06 02:57:13;;;;;;;;;;;;;;;;;;5028259;28;19980;-92
2022/06/06 02:59:39;;;;;;;;;;;;;;;;;;5032983;28;19976;-92
2022/06/06 03:02:04;;;;;;;;;;;;;;;;;;5032717;28;19989;-91
2022/06/06 03:04:30;;;;;;;;;;;;;;;;;;5033306;28;19983;-91
2022/06/06 03:06:55;;;;;;;;;;;;;;;;;;5035911;28;20036;-91
2022/06/06 03:09:21;;;;;;;;;;;;;;;;;;5011286;28;20054;-92
2022/06/06 03:11:46;;;;;;;;;;;;;;;;;;5014627;28;19983;-92
2022/06/06 03:14:11;;;;;;;;;;;;;;;;;;4997431;28;19972;-91
2022/06/06 03:22:05;;;;;;;;;;;;;;;;;;5027150;28;19975;-92
2022/06/06 03:24:31;;;;;;;;;;;;;;;;;;5033900;28;20244;-91
2022/06/06 03:26:56;;;;;;;;;;;;;;;;;;5040169;28;20043;-92
2022/06/06 03:29:21;;;;;;;;;;;;;;;;;;5038568;28;20047;-92
2022/06/06 03:31:53;;;;;;;;;;;;;;;;;;5035785;28;19961;-90
2022/06/06 03:34:19;;;;;;;;;;;;;;;;;;5033803;28;20031;-91
2022/06/06 03:36:45;;;;;;;;;;;;;;;;;;5036357;28;20753;-91
2022/06/06 03:39:12;;;;;;;;;;;;;;;;;;5029491;28;19976;-91
2022/06/06 03:41:37;;;;;;;;;;;;;;;;;;5017887;28;19980;-92
2022/06/06 03:44:09;;;;;;;;;;;;;;;15.48;nan;99624.25;5015438;28;19983;-90
2022/06/06 03:46:34;;;;;;;;;;;;;;;;;;5014228;28;20022;-93
2022/06/06 03:52:05;;;;;;;;;;;;;;;;;;4982272;28;20069;-72
2022/06/06 03:54:30;;;;;;;;;;;;;;;;;;4968698;28;19981;-70
2022/06/06 03:57:01;;;;;;;;;;;;;;;15.34;nan;99629.03;4963618;28;19969;-72
2022/06/06 03:59:28;;;;;;;;;;;;;;;15.35;nan;99625.41;4965193;28;20023;-71
2022/06/06 04:01:55;;;;;;;;;;;;;;;15.36;nan;99633.22;4983206;28;20577;-71
2022/06/06 04:04:22;;;;;;;;;;;;;;;15.36;nan;99629.75;5016213;23;20001;-78
2022/06/06 04:06:48;;;;;;;;;;;;;;;15.39;nan;99637.41;4974222;28;20520;-81
2022/06/06 04:09:14;;;;;;;;;;;;;;;15.39;nan;99632.13;4978324;28;20031;-77
2022/06/06 04:11:58;;;;;;;;;;;;;;;15.36;nan;99633.22;4984218;28;20012;-79
2022/06/06 04:14:48;;;;;;;;;;;;;;;15.35;nan;99634.19;4986390;28;20060;-77
2022/06/06 04:17:22;;;;;;;;;;;;;;;15.37;nan;99634.91;4985983;28;19972;-79
2022/06/06 04:19:50;;;;;;;;;;;;;;;15.37;nan;99631.44;4986693;28;19968;-81
2022/06/06 04:22:35;;;;;;;;;;;;;;;15.37;nan;99636.72;4983035;28;20352;-79
2022/06/06 04:25:06;;;;;;;;;;;;;;;15.38;nan;99631.28;4985004;28;19981;-78
2022/06/06 04:27:38;;;;;;;;;;;;;;;15.42;nan;99630.09;4985361;28;19999;-78
2022/06/06 04:30:05;;;;;;;;;;;;;;;15.51;nan;99633.75;4983222;28;19969;-78
2022/06/06 04:32:33;;;;;;;;;;;;;;;15.62;nan;99630.22;4984091;28;19976;-82
2022/06/06 04:35:11;;;;;;;;;;;;;;;15.73;nan;99630.16;4986488;28;19989;-79
2022/06/06 04:37:43;;;;;;;;;;;;;;;15.83;nan;99635.53;4985608;28;20162;-80
2022/06/06 04:40:17;;;;;;;;;;;;;;;15.91;nan;99638.38;4983075;28;19965;-83
2022/06/06 04:43:05;;;;;;;;;;;;;;;16.01;nan;99639.25;4985953;28;20334;-81
2022/06/06 04:45:38;;;;;;;;;;;;;;;16.08;nan;99640.41;4975352;28;20043;-80
2022/06/06 04:48:04;;;;;;;;;;;;;;;16.15;nan;99641.56;4984289;28;19996;-82
2022/06/06 04:50:30;;;;;;;;;;;;;;;16.29;nan;99643.00;4985342;28;20784;-80
2022/06/06 04:52:58;;;;;;;;;;;;;;;16.49;nan;99643.91;4986380;28;19981;-77
2022/06/06 04:55:25;;;;;;;;;;;;;;;16.75;nan;99646.09;4981577;28;20035;-81
2022/06/06 04:57:51;;;;;;;;;;;;;;;17.13;nan;99647.16;4983578;28;20634;-81
2022/06/06 05:00:17;;;;;;;;;;;;;;;17.54;nan;99638.06;4984957;28;20415;-77
2022/06/06 05:02:42;;;;;;;;;;;;;;;17.72;nan;99637.34;4984434;28;20071;-81
2022/06/06 05:05:09;;;;;;;;;;;;;;;17.74;nan;99640.69;4981958;28;20761;-78
2022/06/06 05:07:37;;;;;;;;;;;;;;;17.71;nan;99636.50;4985410;28;19993;-78
2022/06/06 05:10:08;;;;;;;;;;;;;;;17.63;nan;99636.38;4982683;28;20007;-82
2022/06/06 05:12:54;;;;;;;;;;;;;;;17.55;nan;99634.44;4984351;28;20374;-81
2022/06/06 05:15:25;;;;;;;;;;;;;;;17.53;nan;99646.19;4963580;28;19988;-78
2022/06/06 05:18:05;;;;;;;;;;;;;;;17.59;nan;99648.28;4984164;28;19981;-77
2022/06/06 05:20:40;;;;;;;;;;;;;;;17.68;nan;99652.72;4981706;28;20019;-80
2022/06/06 05:23:25;;;;;;;;;;;;;;;17.92;nan;99646.97;4983167;28;20642;-78
2022/06/06 05:26:09;;;;;;;;;;;;;;;18.50;nan;99649.44;4983412;28;20019;-81
2022/06/06 05:28:34;;;;;;;;;;;;;;;18.98;nan;99650.16;4986868;28;20465;-77
2022/06/06 05:31:09;;;;;;;;;;;;;;;19.35;nan;99657.19;4983655;28;19979;-78
2022/06/06 05:33:41;;;;;;;;;;;;;;;19.70;nan;99651.00;4985118;28;19936;-77
2022/06/06 05:36:39;;;;;;;;;;;;;;;20.04;nan;99652.91;4984672;28;20019;-79
2022/06/06 05:39:13;;;;;;;;;;;;;;;20.38;nan;99660.91;4958930;28;20373;-82
2022/06/06 05:41:47;;;;;;;;;;;;;;;20.53;nan;99664.69;4986231;28;19973;-82
2022/06/06 05:44:33;;;;;;;;;;;;;;;20.69;nan;99655.91;4983459;28;20015;-78
2022/06/06 05:47:10;;;;;;;;;;;;;;;20.81;nan;99664.44;4983418;28;20031;-82
2022/06/06 05:49:44;;;;;;;;;;;;;;;20.81;nan;99659.09;4968173;28;20068;-77
2022/06/06 05:52:34;;;;;;;;;;;;;;;20.78;nan;99662.09;4983464;28;19995;-78
2022/06/06 05:55:24;;;;;;;;;;;;;;;20.77;nan;99668.47;4985214;28;20024;-78
2022/06/06 05:58:02;;;;;;;;;;;;;;;20.81;nan;99658.28;4985147;28;20452;-78
2022/06/06 06:00:58;;;;;;;;;;;;;;;20.74;nan;99658.09;4984997;28;20023;-78
2022/06/06 06:03:42;;;;;;;;;;;;;;;20.58;nan;99660.69;4946787;28;20193;-81
2022/06/06 06:06:12;;;;;;;;;;;;;;;20.41;nan;99662.41;4984669;28;19989;-78
2022/06/06 06:08:47;;;;;;;;;;;;;;;20.31;nan;99658.06;4984714;28;20083;-80
2022/06/06 06:11:17;;;;;;;;;;;;;;;20.34;nan;99663.06;4987647;28;19964;-78
2022/06/06 06:14:01;;;;;;;;;;;;;;;20.48;nan;99666.13;4992253;28;19977;-79
2022/06/06 06:16:27;;;;;;;;;;;;;;;20.66;nan;99666.09;4988991;28;19968;-81
2022/06/06 06:19:07;;;;;;;;;;;;;;;21.10;nan;99671.22;4994053;28;19976;-81
2022/06/06 06:21:36;;;;;;;;;;;;;;;21.75;nan;99657.91;4990914;28;20409;-78
2022/06/06 06:24:14;;;;;;;;;;;;;;;22.15;nan;99663.38;4988961;28;20023;-78
2022/06/06 06:26:39;;;;;;;;;;;;;;;22.47;nan;99671.34;4988914;28;19956;-78
2022/06/06 06:29:06;;;;;;;;;;;;;;;22.68;nan;99667.22;4989571;28;20376;-78
2022/06/06 06:31:31;;;;;;;;;;;;;;;22.95;nan;99669.44;4990758;28;20054;-81
2022/06/06 06:34:07;;;;;;;;;;;;;;;23.21;nan;99670.97;4986727;28;20055;-79
2022/06/06 06:36:41;;;;;;;;;;;;;;;23.32;nan;99672.41;4978861;28;19968;-79
2022/06/06 06:39:32;;;;;;;;;;;;;;;23.40;nan;99675.03;4992171;28;19976;-77
2022/06/06 06:42:00;;;;;;;;;;;;;;;23.63;nan;99675.88;4975377;28;19972;-81
2022/06/06 06:44:32;;;;;;;;;;;;;;;23.83;nan;99681.56;4989852;28;20488;-76
2022/06/06 06:47:02;;;;;;;;;;;;;;;23.79;nan;99682.09;4988773;28;19988;-78
2022/06/06 06:49:30;;;;;;;;;;;;;;;23.49;nan;99686.53;4971571;28;19989;-77
2022/06/06 06:52:14;;;;;;;;;;;;;;;23.10;nan;99695.50;4987942;28;19972;-76
2022/06/06 06:54:52;;;;;;;;;;;;;;;22.68;nan;99688.63;4990269;28;20357;-79
2022/06/06 06:57:36;;;;;;;;;;;;;;;22.37;nan;99693.94;4984959;28;19990;-80
2022/06/06 07:00:05;;;;;;;;;;;;;;;22.12;nan;99696.66;4990114;28;20008;-77
2022/06/06 07:08:34;;;;;;;;;;;;;;;21.66;nan;99685.66;4972873;28;19988;-77
2022/06/06 07:11:09;;;;;;;;;;;;;;;21.54;nan;99689.66;4992005;28;19979;-77
2022/06/06 07:13:43;;;;;;;;;;;;;;;21.42;nan;99686.50;4993183;28;20027;-78
2022/06/06 07:16:08;;;;;;;;;;;;;;;21.51;nan;99698.00;4991274;28;19971;-78
2022/06/06 07:18:36;;;;;;;;;;;;;;;21.82;nan;99682.97;4971174;28;19975;-78
2022/06/06 07:21:04;;;;;;;;;;;;;;;22.31;nan;99682.09;4971599;28;19975;-81
2022/06/06 07:23:31;;;;;;;;;;;;;;;22.79;nan;99674.88;5006851;28;19989;-77
2022/06/06 07:25:58;;;;;;;;;;;;;;;23.29;nan;99672.78;5009938;28;20341;-78
2022/06/06 07:28:24;;;;;;;;;;;;;;;23.85;nan;99676.88;5007355;28;19984;-83
2022/06/06 07:31:09;;;;;;;;;;;;;;;24.36;nan;99676.19;5011214;28;20062;-78
2022/06/06 07:33:57;;;;;;;;;;;;;;;24.94;nan;99673.63;5006698;28;19968;-77
2022/06/06 07:36:36;;;;;;;;;;;;;;;25.48;nan;99669.69;5010211;28;19982;-78
2022/06/06 07:39:12;;;;;;;;;;;;;;;25.88;nan;99672.75;5010134;28;19973;-79
2022/06/06 07:41:44;;;;;;;;;;;;;;;26.14;nan;99661.31;5010804;28;19995;-78
2022/06/06 07:44:15;;;;;;;;;;;;;;;26.24;nan;99657.25;5014320;28;19991;-79
2022/06/06 07:46:47;;;;;;;;;;;;;;;26.24;nan;99659.09;5019479;28;20329;-77
2022/06/06 07:49:18;;;;;;;;;;;;;;;26.25;nan;99653.53;5017006;28;19988;-78
2022/06/06 07:52:04;;;;;;;;;;;;;;;26.16;nan;99653.88;5020136;28;19976;-75
2022/06/06 07:54:39;;;;;;;;;;;;;;;26.00;nan;99657.69;5008032;28;20006;-76
2022/06/06 07:59:54;;;;;;;;;;;;;;;25.85;nan;99662.38;5644057;23;20503;-75
2022/06/06 08:02:19;;;;;;;;;;;;;;;25.45;nan;99668.22;5003348;28;19972;-75
2022/06/06 08:04:53;;;;;;;;;;;;;;;25.07;nan;99662.22;4998381;28;20015;-75
2022/06/06 08:07:23;;;;;;;;;;;;;;;24.83;nan;99661.53;4993326;28;20417;-74
2022/06/06 08:09:49;;;;;;;;;;;;;;;24.75;nan;99655.44;4996718;28;20072;-75
2022/06/06 08:12:14;;;;;;;;;;;;;;;24.78;nan;99653.19;4995235;28;19996;-74
2022/06/06 08:14:47;;;;;;;;;;;;;;;24.98;nan;99652.59;4995097;28;19992;-74
2022/06/06 08:17:41;;;;;;;;;;;;;;;25.12;nan;99654.41;4996060;28;19968;-75
2022/06/06 08:20:09;;;;;;;;;;;;;;;25.26;nan;99652.72;4964036;28;19972;-74
2022/06/06 08:22:35;;;;;;;;;;;;;;;25.50;nan;99651.50;4984602;28;19988;-70
2022/06/06 08:25:02;;;;;;;;;;;;;;;25.69;nan;99648.13;4993283;28;20397;-71
2022/06/06 08:27:28;;;;;;;;;;;;;;;25.98;nan;99644.47;4986019;28;20172;-73
2022/06/06 08:29:53;;;;;;;;;;;;;;;26.15;nan;99636.91;4991238;28;20333;-72
2022/06/06 08:32:19;;;;;;;;;;;;;;;26.18;nan;99639.19;5000864;28;20023;-73
2022/06/06 08:34:44;;;;;;;;;;;;;;;26.01;nan;99641.38;4990214;28;20004;-73
2022/06/06 08:37:13;;;;;;;;;;;;;;;26.03;nan;99642.00;4999970;28;19976;-73
2022/06/06 08:39:44;;;;;;;;;;;;;;;26.18;nan;99631.13;4993698;28;20020;-73
2022/06/06 08:42:18;;;;;;;;;;;;;;;26.33;nan;99641.78;4984735;28;19972;-72
2022/06/06 08:44:43;;;;;;;;;;;;;;;26.52;nan;99632.16;4990251;28;20516;-73
2022/06/06 08:47:13;;;;;;;;;;;;;;;26.57;nan;99637.78;4988607;28;19968;-73
2022/06/06 08:52:34;;;;;;;;;;;;;;;26.62;nan;99634.47;4981810;28;20047;-73
2022/06/06 08:54:59;;;;;;;;;;;;;;;26.82;nan;99640.75;4994240;28;20046;-73
2022/06/06 08:57:34;;;;;;;;;;;;;;;26.87;nan;99641.00;4990068;28;19968;-73
2022/06/06 09:00:09;;;;;;;;;;;;;;;26.59;nan;99646.47;4986702;28;20107;-72
2022/06/06 09:02:43;;;;;;;;;;;;;;;26.25;nan;99641.94;4989480;28;19969;-72
2022/06/06 09:05:30;;;;;;;;;;;;;;;26.38;nan;99643.84;4990356;28;20145;-73
2022/06/06 09:08:14;;;;;;;;;;;;;;;26.40;nan;99631.03;4990145;28;20027;-73
2022/06/06 09:10:45;;;;;;;;;;;;;;;26.19;nan;99637.31;4977980;28;20498;-72
2022/06/06 09:13:20;;;;;;;;;;;;;;;25.85;nan;99641.69;4988693;28;20000;-73
2022/06/06 09:16:02;;;;;;;;;;;;;;;25.45;nan;99645.88;4982683;28;19988;-73
2022/06/06 09:18:37;;;;;;;;;;;;;;;25.13;nan;99648.00;4987060;28;19979;-73
2022/06/06 09:21:10;;;;;;;;;;;;;;;25.08;nan;99645.06;4963340;28;20015;-72
2022/06/06 09:23:58;;;;;;;;;;;;;;;25.26;nan;99641.97;4981769;28;19976;-73
2022/06/06 09:26:30;;;;;;;;;;;;;;;25.36;nan;99632.56;4985113;28;20011;-73
2022/06/06 09:29:04;;;;;;;;;;;;;;;25.42;nan;99638.19;4983467;28;20000;-73
2022/06/06 09:31:36;;;;;;;;;;;;;;;25.74;nan;99629.56;4984707;28;19972;-73
2022/06/06 09:34:15;;;;;;;;;;;;;;;26.00;nan;99625.41;4983179;28;20304;-73
2022/06/06 09:36:41;;;;;;;;;;;;;;;26.08;nan;99627.94;4982773;28;19976;-73
2022/06/06 09:39:33;;;;;;;;;;;;;;;26.13;nan;99628.19;4985239;28;19968;-73
2022/06/06 09:42:08;;;;;;;;;;;;;;;26.27;nan;99613.78;4983728;28;19969;-73
2022/06/06 09:44:40;;;;;;;;;;;;;;;26.41;nan;99622.75;4984104;28;20151;-73
2022/06/06 09:47:30;;;;;;;;;;;;;;;26.40;nan;99620.25;4980906;28;20997;-72
2022/06/06 09:50:07;;;;;;;;;;;;;;;26.47;nan;99621.94;4984801;28;20469;-72
2022/06/06 09:52:35;;;;;;;;;;;;;;;26.48;nan;99614.69;4995733;28;20103;-72
2022/06/06 10:01:24;;;;;;;;;;;;;;;26.16;nan;99613.50;4986792;28;19988;-73
2022/06/06 10:04:08;;;;;;;;;;;;;;;26.08;nan;99614.47;4993702;28;20373;-73
2022/06/06 10:06:52;;;;;;;;;;;;;;;25.88;nan;99608.16;4997437;28;19973;-74
2022/06/06 10:09:36;;;;;;;;;;;;;;;25.55;nan;99606.03;4996000;28;19992;-74
2022/06/06 10:12:10;;;;;;;;;;;;;;;25.46;nan;99613.38;4993000;28;20011;-74
2022/06/06 10:14:38;;;;;;;;;;;;;;;25.55;nan;99606.03;4996745;28;20034;-74
2022/06/06 10:17:31;;;;;;;;;;;;;;;25.67;nan;99604.47;5002415;28;19973;-74
2022/06/06 10:19:57;;;;;;;;;;;;;;;25.72;nan;99598.50;5000028;28;20283;-74
2022/06/06 10:22:44;;;;;;;;;;;;;;;25.80;nan;99596.47;4996938;28;19979;-74
2022/06/06 10:25:28;;;;;;;;;;;;;;;25.85;nan;99595.94;4994681;28;20216;-74
2022/06/06 10:28:15;;;;;;;;;;;;;;;25.99;nan;99588.75;4998587;28;19984;-74
2022/06/06 10:30:59;;;;;;;;;;;;;;;25.95;nan;99582.97;4999120;28;20505;-74
2022/06/06 10:33:34;;;;;;;;;;;;;;;25.92;nan;99585.19;4995701;28;20421;-75
2022/06/06 10:36:02;;;;;;;;;;;;;;;25.83;nan;99581.81;4996375;28;19992;-74
2022/06/06 10:38:42;;;;;;;;;;;;;;;25.83;nan;99588.03;4997618;28;19972;-75
2022/06/06 10:41:13;;;;;;;;;;;;;;;25.83;nan;99588.03;4995067;28;19972;-74
2022/06/06 10:43:46;;;;;;;;;;;;;;;25.94;nan;99594.72;4994359;28;19985;-74
2022/06/06 10:46:25;;;;;;;;;;;;;;;26.02;nan;99596.44;5001521;28;19976;-75
2022/06/06 10:48:51;;;;;;;;;;;;;;;25.95;nan;99584.78;5001250;28;20004;-75
2022/06/06 10:51:37;;;;;;;;;;;;;;;25.97;nan;99583.56;4994187;28;19988;-74
2022/06/06 10:54:21;;;;;;;;;;;;;;;26.23;nan;99582.06;4992446;28;19976;-75
2022/06/06 10:56:46;;;;;;;;;;;;;;;26.48;nan;99579.66;4983202;28;20023;-74
2022/06/06 10:59:15;;;;;;;;;;;;;;;26.35;nan;99576.94;4991553;28;20043;-74
2022/06/06 11:01:59;;;;;;;;;;;;;;;25.95;nan;99592.88;4976852;28;19976;-74
2022/06/06 11:04:43;;;;;;;;;;;;;;;25.51;nan;99584.06;4982594;28;20047;-74
2022/06/06 11:07:27;;;;;;;;;;;;;;;25.64;nan;99574.44;4975545;28;20421;-75
2022/06/06 11:10:14;;;;;;;;;;;;;;;25.88;nan;99563.25;4977162;28;19973;-74
2022/06/06 11:12:58;;;;;;;;;;;;;;;25.95;nan;99561.44;4973097;28;19976;-75
2022/06/06 11:15:29;;;;;;;;;;;;;;;26.14;nan;99559.00;4979009;28;20536;-73
2022/06/06 11:17:57;;;;;;;;;;;;;;;26.36;nan;99555.19;4966936;28;20000;-73
2022/06/06 11:20:41;;;;;;;;;;;;;;;26.62;nan;99559.03;4962815;28;19984;-73
2022/06/06 11:23:19;;;;;;;;;;;;;;;26.75;nan;99560.94;4956982;28;20071;-74
2022/06/06 11:25:47;;;;;;;;;;;;;;;26.72;nan;99553.25;4957578;28;20126;-74
2022/06/06 11:28:19;;;;;;;;;;;;;;;26.81;nan;99550.16;4960134;28;20000;-74
2022/06/06 11:30:44;;;;;;;;;;;;;;;26.95;nan;99544.78;4959607;28;19973;-72
2022/06/06 11:33:47;;;;;;;;;;;;;;;27.04;nan;99551.66;4959031;28;19976;-73
2022/06/06 11:36:33;;;;;;;;;;;;;;;26.99;nan;99544.19;4868836;29;19975;-73
2022/06/06 11:39:17;;;;;;;;;;;;;;;26.92;nan;99527.16;4880424;29;19975;-73
2022/06/06 11:42:01;;;;;;;;;;;;;;;26.90;nan;99531.94;4937590;28;20008;-72
2022/06/06 11:44:26;;;;;;;;;;;;;;;26.95;nan;99524.06;4949888;28;20031;-73
2022/06/06 11:46:55;;;;;;;;;;;;;;;26.96;nan;99522.19;4935661;28;20060;-73
2022/06/06 11:49:29;;;;;;;;;;;;;;;26.96;nan;99524.91;4960281;28;20128;-73
2022/06/06 11:51:57;;;;;;;;;;;;;;;26.80;nan;99524.25;4962213;28;20657;-73
2022/06/06 11:54:41;;;;;;;;;;;;;;;26.66;nan;99506.41;4956717;28;20480;-71
2022/06/06 11:57:09;;;;;;;;;;;;;;;26.65;nan;99510.97;4937704;28;19969;-71
2022/06/06 11:59:35;;;;;;;;;;;;;;;26.49;nan;99504.06;4930892;28;19989;-71
2022/06/06 12:02:09;;;;;;;;;;;;;;;26.46;nan;99506.31;4959947;28;20302;-74
2022/06/06 12:04:40;;;;;;;;;;;;;;;26.43;nan;99498.66;4961435;28;20460;-73
2022/06/06 12:07:33;;;;;;;;;;;;;;;26.38;nan;99493.03;4958419;28;20458;-71
2022/06/06 12:09:59;;;;;;;;;;;;;;;26.34;nan;99491.78;4961322;28;20001;-73
2022/06/06 12:12:43;;;;;;;;;;;;;;;26.27;nan;99481.84;4963064;28;20390;-73
2022/06/06 12:15:37;;;;;;;;;;;;;;;26.24;nan;99479.53;4960593;28;20088;-72
2022/06/06 12:18:21;;;;;;;;;;;;;;;26.32;nan;99477.69;4947886;28;19973;-73
2022/06/06 12:20:47;;;;;;;;;;;;;;;26.47;nan;99464.91;4960951;28;20024;-71
2022/06/06 12:23:22;;;;;;;;;;;;;;;26.58;nan;99480.47;4963330;28;20016;-73
2022/06/06 12:26:18;;;;;;;;;;;;;;;26.67;nan;99476.56;4958264;28;19988;-73
2022/06/06 12:29:09;;;;;;;;;;;;;;;26.82;nan;99468.28;4958153;28;19993;-74
2022/06/06 12:31:44;;;;;;;;;;;;;;;27.06;nan;99466.84;4957378;28;20052;-73
2022/06/06 12:34:10;;;;;;;;;;;;;;;27.23;nan;99469.97;4962192;28;20000;-73
2022/06/06 12:36:54;;;;;;;;;;;;;;;27.32;nan;99465.16;4960217;28;19965;-73
2022/06/06 12:39:29;;;;;;;;;;;;;;;27.40;nan;99456.84;4958513;28;20239;-74
2022/06/06 12:42:00;;;;;;;;;;;;;;;27.51;nan;99461.59;4961656;28;19968;-74
2022/06/06 12:44:26;;;;;;;;;;;;;;;27.63;nan;99469.06;4959936;28;19985;-74
2022/06/06 12:47:13;;;;;;;;;;;;;;;27.66;nan;99464.06;4956449;28;19973;-73
2022/06/06 12:49:50;;;;;;;;;;;;;;;27.68;nan;99453.88;4960177;28;20358;-72
2022/06/06 12:52:18;;;;;;;;;;;;;;;27.65;nan;99453.47;4959987;28;19972;-73
2022/06/06 12:57:34;;;;;;;;;;;;;;;27.34;nan;99450.44;4957724;28;19965;-72
2022/06/06 13:00:00;;;;;;;;;;;;;;;27.34;nan;99444.22;4960549;28;20095;-73
2022/06/06 13:02:41;;;;;;;;;;;;;;;27.35;nan;99441.31;4959673;28;20068;-74
2022/06/06 13:05:13;;;;;;;;;;;;;;;27.45;nan;99438.16;4960535;28;19989;-73
2022/06/06 13:07:45;;;;;;;;;;;;;;;27.31;nan;99445.47;4957258;28;20012;-74
2022/06/06 13:10:36;;;;;;;;;;;;;;;27.23;nan;99436.78;4960825;28;19988;-73
2022/06/06 13:13:17;;;;;;;;;;;;;;;27.06;nan;99436.34;4956559;28;19984;-73
2022/06/06 13:15:53;;;;;;;;;;;;;;;26.91;nan;99440.06;4959415;28;20056;-73
2022/06/06 13:18:37;;;;;;;;;;;;;;;26.88;nan;99443.19;4953320;28;20528;-74
2022/06/06 13:21:03;;;;;;;;;;;;;;;26.89;nan;99436.75;4958059;28;19969;-74
2022/06/06 13:23:45;;;;;;;;;;;;;;;27.08;nan;99429.69;4959435;28;19993;-73
2022/06/06 13:26:31;;;;;;;;;;;;;;;27.09;nan;99438.63;4959115;28;19976;-73
2022/06/06 13:28:57;;;;;;;;;;;;;;;26.86;nan;99436.34;4959851;28;19988;-74
2022/06/06 13:31:22;;;;;;;;;;;;;;;26.63;nan;99436.78;4956666;28;20485;-74
2022/06/06 13:34:11;;;;;;;;;;;;;;;26.48;nan;99436.91;4944755;28;20456;-73
2022/06/06 13:36:36;;;;;;;;;;;;;;;26.31;nan;99438.34;4948085;28;19988;-73
2022/06/06 13:39:40;;;;;;;;;;;;;;;26.27;nan;99433.38;4957956;28;20841;-73
2022/06/06 13:42:24;;;;;;;;;;;;;;;26.23;nan;99432.09;4919217;29;19997;-73
2022/06/06 13:44:49;;;;;;;;;;;;;;;26.26;nan;99428.19;4918967;29;20025;-73
2022/06/06 13:47:26;;;;;;;;;;;;;;;26.32;nan;99437.31;4939797;28;20030;-74
2022/06/06 13:49:57;;;;;;;;;;;;;;;26.26;nan;99431.69;4958478;28;19993;-74
2022/06/06 13:52:31;;;;;;;;;;;;;;;26.30;nan;99433.97;4960006;28;19969;-73
2022/06/06 13:55:16;;;;;;;;;;;;;;;26.46;nan;99425.50;4960680;28;20004;-74
2022/06/06 13:57:50;;;;;;;;;;;;;;;26.59;nan;99419.34;4956643;28;20035;-73
2022/06/06 14:00:22;;;;;;;;;;;;;;;26.69;nan;99412.50;4962006;28;20092;-73
2022/06/06 14:02:52;;;;;;;;;;;;;;;26.74;nan;99416.47;4967550;28;19976;-74
2022/06/06 14:05:27;;;;;;;;;;;;;;;26.73;nan;99417.50;4971214;28;20453;-74
2022/06/06 14:08:07;;;;;;;;;;;;;;;26.64;nan;99417.69;4962972;28;20027;-73
2022/06/06 14:10:54;;;;;;;;;;;;;;;26.54;nan;99411.06;4971416;28;20026;-73
2022/06/06 14:13:24;;;;;;;;;;;;;;;26.52;nan;99413.13;4970447;28;20073;-73
2022/06/06 14:15:50;;;;;;;;;;;;;;;26.51;nan;99408.75;4963077;28;20052;-74
2022/06/06 14:18:22;;;;;;;;;;;;;;;26.64;nan;99406.09;4967072;28;20012;-73
2022/06/06 14:20:50;;;;;;;;;;;;;;;26.76;nan;99408.97;4969122;28;19973;-73
2022/06/06 14:23:32;;;;;;;;;;;;;;;26.81;nan;99406.50;4973905;28;19965;-73
2022/06/06 14:26:00;;;;;;;;;;;;;;;26.77;nan;99398.00;4966468;28;19993;-73
2022/06/06 14:28:30;;;;;;;;;;;;;;;26.75;nan;99407.34;4969113;28;20086;-72
2022/06/06 14:30:55;;;;;;;;;;;;;;;26.79;nan;99413.94;4966801;28;20031;-72
2022/06/06 14:33:23;;;;;;;;;;;;;;;26.82;nan;99402.78;4965394;28;19977;-72
2022/06/06 14:35:48;;;;;;;;;;;;;;;26.76;nan;99414.38;4969555;28;20425;-71
2022/06/06 14:38:17;;;;;;;;;;;;;;;26.62;nan;99418.94;4968541;28;20504;-70
2022/06/06 14:40:46;;;;;;;;;;;;;;;26.53;nan;99418.31;4972480;28;20035;-71
2022/06/06 14:43:12;;;;;;;;;;;;;;;26.51;nan;99423.06;4975404;28;20080;-71
2022/06/06 14:45:39;;;;;;;;;;;;;;;26.50;nan;99424.09;4964429;28;20075;-71
2022/06/06 14:48:04;;;;;;;;;;;;;;;26.46;nan;99425.50;4973412;28;20008;-71
2022/06/06 14:50:46;;;;;;;;;;;;;;;26.44;nan;99427.59;4968297;28;19965;-71
2022/06/06 14:53:20;;;;;;;;;;;;;;;26.38;nan;99426.56;4961623;28;20263;-71
2022/06/06 14:55:47;;;;;;;;;;;;;;;26.25;nan;99419.28;4970850;28;19995;-71
2022/06/06 14:58:13;;;;;;;;;;;;;;;26.15;nan;99424.22;4967681;28;19969;-71